sensor_id;sensor_type;location;lat;lon;timestamp;P1;durP1;ratioP1;P2;durP2;ratioP2
68214;SDS011;55036;52.138;5.236;2023-07-31T00:01:38;4.10;;;1.40;;
68214;SDS011;55036;52.138;5.236;2023-07-31T00:04:05;3.15;;;1.90;;
68214;SDS011;55036;52.138;5.236;2023-07-31T00:06:32;3.15;;;1.60;;
68214;SDS011;55036;52.138;5.236;2023-07-31T00:08:59;1.63;;;1.48;;
68214;SDS011;55036;52.138;5.236;2023-07-31T00:11:25;2.53;;;1.27;;
68214;SDS011;55036;52.138;5.236;2023-07-31T00:13:53;3.13;;;1.25;;
68214;SDS011;55036;52.138;5.236;2023-07-31T00:16:20;2.38;;;1.42;;
68214;SDS011;55036;52.138;5.236;2023-07-31T00:18:47;3.42;;;1.50;;
68214;SDS011;55036;52.138;5.236;2023-07-31T00:21:13;3.03;;;1.83;;
68214;SDS011;55036;52.138;5.236;2023-07-31T00:23:40;3.92;;;2.00;;
68214;SDS011;55036;52.138;5.236;2023-07-31T00:26:07;6.47;;;2.25;;
68214;SDS011;55036;52.138;5.236;2023-07-31T00:28:34;7.43;;;2.35;;
68214;SDS011;55036;52.138;5.236;2023-07-31T00:31:01;6.45;;;2.67;;
68214;SDS011;55036;52.138;5.236;2023-07-31T00:33:30;10.18;;;3.08;;
68214;SDS011;55036;52.138;5.236;2023-07-31T00:35:57;11.07;;;3.67;;
68214;SDS011;55036;52.138;5.236;2023-07-31T00:38:24;15.88;;;4.25;;
68214;SDS011;55036;52.138;5.236;2023-07-31T00:40:51;14.27;;;4.50;;
68214;SDS011;55036;52.138;5.236;2023-07-31T01:19:24;7.32;;;2.58;;
68214;SDS011;55036;52.138;5.236;2023-07-31T01:22:12;7.43;;;2.80;;
68214;SDS011;55036;52.138;5.236;2023-07-31T01:27:30;6.60;;;2.55;;
68214;SDS011;55036;52.138;5.236;2023-07-31T01:30:08;6.75;;;2.13;;
68214;SDS011;55036;52.138;5.236;2023-07-31T01:32:40;9.57;;;2.78;;
68214;SDS011;55036;52.138;5.236;2023-07-31T01:35:10;9.18;;;2.85;;
68214;SDS011;55036;52.138;5.236;2023-07-31T01:37:37;8.77;;;2.80;;
68214;SDS011;55036;52.138;5.236;2023-07-31T01:40:04;11.32;;;3.45;;
68214;SDS011;55036;52.138;5.236;2023-07-31T01:42:32;18.25;;;5.40;;
68214;SDS011;55036;52.138;5.236;2023-07-31T01:44:59;24.60;;;5.57;;
68214;SDS011;55036;52.138;5.236;2023-07-31T01:47:26;23.88;;;5.85;;
68214;SDS011;55036;52.138;5.236;2023-07-31T01:49:52;20.30;;;5.97;;
68214;SDS011;55036;52.138;5.236;2023-07-31T01:52:19;23.35;;;6.85;;
68214;SDS011;55036;52.138;5.236;2023-07-31T01:54:46;28.20;;;6.30;;
68214;SDS011;55036;52.138;5.236;2023-07-31T01:57:13;27.80;;;6.25;;
68214;SDS011;55036;52.138;5.236;2023-07-31T01:59:40;24.98;;;6.47;;
68214;SDS011;55036;52.138;5.236;2023-07-31T02:02:06;21.35;;;5.97;;
68214;SDS011;55036;52.138;5.236;2023-07-31T02:04:33;21.08;;;5.28;;
68214;SDS011;55036;52.138;5.236;2023-07-31T02:07:00;19.42;;;6.05;;
68214;SDS011;55036;52.138;5.236;2023-07-31T02:09:27;15.23;;;5.07;;
68214;SDS011;55036;52.138;5.236;2023-07-31T02:11:53;22.33;;;5.90;;
68214;SDS011;55036;52.138;5.236;2023-07-31T02:14:20;15.43;;;5.32;;
68214;SDS011;55036;52.138;5.236;2023-07-31T02:16:47;16.95;;;5.53;;
68214;SDS011;55036;52.138;5.236;2023-07-31T02:19:14;23.30;;;5.57;;
68214;SDS011;55036;52.138;5.236;2023-07-31T02:21:41;16.98;;;4.93;;
68214;SDS011;55036;52.138;5.236;2023-07-31T02:24:07;20.58;;;5.88;;
68214;SDS011;55036;52.138;5.236;2023-07-31T02:26:34;25.95;;;6.55;;
68214;SDS011;55036;52.138;5.236;2023-07-31T02:29:02;21.30;;;6.25;;
68214;SDS011;55036;52.138;5.236;2023-07-31T02:31:28;19.10;;;5.95;;
68214;SDS011;55036;52.138;5.236;2023-07-31T02:33:55;24.00;;;6.50;;
68214;SDS011;55036;52.138;5.236;2023-07-31T02:36:22;18.38;;;5.65;;
68214;SDS011;55036;52.138;5.236;2023-07-31T02:38:48;22.17;;;5.22;;
68214;SDS011;55036;52.138;5.236;2023-07-31T02:41:15;22.35;;;5.78;;
68214;SDS011;55036;52.138;5.236;2023-07-31T02:43:42;18.67;;;5.72;;
68214;SDS011;55036;52.138;5.236;2023-07-31T02:46:09;15.90;;;4.70;;
68214;SDS011;55036;52.138;5.236;2023-07-31T02:48:36;25.08;;;5.70;;
68214;SDS011;55036;52.138;5.236;2023-07-31T02:51:02;20.70;;;6.00;;
68214;SDS011;55036;52.138;5.236;2023-07-31T02:53:29;23.23;;;6.38;;
68214;SDS011;55036;52.138;5.236;2023-07-31T02:55:56;22.92;;;5.95;;
68214;SDS011;55036;52.138;5.236;2023-07-31T02:58:23;26.95;;;6.60;;
68214;SDS011;55036;52.138;5.236;2023-07-31T03:00:49;26.63;;;6.82;;
68214;SDS011;55036;52.138;5.236;2023-07-31T03:03:16;26.35;;;6.78;;
68214;SDS011;55036;52.138;5.236;2023-07-31T03:05:43;22.98;;;6.22;;
68214;SDS011;55036;52.138;5.236;2023-07-31T03:08:10;23.77;;;6.93;;
68214;SDS011;55036;52.138;5.236;2023-07-31T03:10:37;30.83;;;7.35;;
68214;SDS011;55036;52.138;5.236;2023-07-31T03:13:03;28.10;;;7.78;;
68214;SDS011;55036;52.138;5.236;2023-07-31T03:15:30;34.65;;;7.90;;
68214;SDS011;55036;52.138;5.236;2023-07-31T03:17:57;27.23;;;8.00;;
68214;SDS011;55036;52.138;5.236;2023-07-31T03:20:24;30.58;;;8.45;;
68214;SDS011;55036;52.138;5.236;2023-07-31T03:22:51;29.23;;;7.00;;
68214;SDS011;55036;52.138;5.236;2023-07-31T03:25:17;24.77;;;6.15;;
68214;SDS011;55036;52.138;5.236;2023-07-31T03:27:44;23.23;;;7.05;;
68214;SDS011;55036;52.138;5.236;2023-07-31T03:30:11;29.33;;;7.55;;
68214;SDS011;55036;52.138;5.236;2023-07-31T03:32:38;22.85;;;7.65;;
68214;SDS011;55036;52.138;5.236;2023-07-31T03:35:04;25.60;;;7.70;;
68214;SDS011;55036;52.138;5.236;2023-07-31T03:37:32;22.92;;;7.50;;
68214;SDS011;55036;52.138;5.236;2023-07-31T03:39:59;23.00;;;7.82;;
68214;SDS011;55036;52.138;5.236;2023-07-31T03:42:25;26.40;;;6.93;;
68214;SDS011;55036;52.138;5.236;2023-07-31T03:44:52;23.15;;;7.45;;
68214;SDS011;55036;52.138;5.236;2023-07-31T03:47:19;25.25;;;6.78;;
68214;SDS011;55036;52.138;5.236;2023-07-31T03:49:45;22.92;;;7.13;;
68214;SDS011;55036;52.138;5.236;2023-07-31T03:52:12;29.17;;;7.85;;
68214;SDS011;55036;52.138;5.236;2023-07-31T03:54:39;24.60;;;6.95;;
68214;SDS011;55036;52.138;5.236;2023-07-31T03:57:06;25.73;;;6.85;;
68214;SDS011;55036;52.138;5.236;2023-07-31T03:59:32;28.23;;;7.07;;
68214;SDS011;55036;52.138;5.236;2023-07-31T04:01:59;24.33;;;6.88;;
68214;SDS011;55036;52.138;5.236;2023-07-31T04:04:26;26.20;;;7.47;;
68214;SDS011;55036;52.138;5.236;2023-07-31T04:06:52;24.88;;;7.70;;
68214;SDS011;55036;52.138;5.236;2023-07-31T04:09:19;24.25;;;7.93;;
68214;SDS011;55036;52.138;5.236;2023-07-31T04:11:46;26.27;;;7.25;;
68214;SDS011;55036;52.138;5.236;2023-07-31T04:14:13;22.42;;;7.22;;
68214;SDS011;55036;52.138;5.236;2023-07-31T04:16:39;22.45;;;7.50;;
68214;SDS011;55036;52.138;5.236;2023-07-31T04:19:07;32.63;;;8.15;;
68214;SDS011;55036;52.138;5.236;2023-07-31T04:21:33;23.55;;;6.35;;
68214;SDS011;55036;52.138;5.236;2023-07-31T04:24:00;22.23;;;7.85;;
68214;SDS011;55036;52.138;5.236;2023-07-31T04:26:27;24.40;;;6.90;;
68214;SDS011;55036;52.138;5.236;2023-07-31T04:28:54;23.90;;;7.72;;
68214;SDS011;55036;52.138;5.236;2023-07-31T04:31:20;19.27;;;6.93;;
68214;SDS011;55036;52.138;5.236;2023-07-31T04:33:47;25.98;;;7.63;;
68214;SDS011;55036;52.138;5.236;2023-07-31T04:36:14;18.98;;;6.75;;
68214;SDS011;55036;52.138;5.236;2023-07-31T04:38:41;18.02;;;6.50;;
68214;SDS011;55036;52.138;5.236;2023-07-31T04:41:07;15.73;;;6.13;;
68214;SDS011;55036;52.138;5.236;2023-07-31T04:43:34;21.10;;;6.63;;
68214;SDS011;55036;52.138;5.236;2023-07-31T04:46:01;17.90;;;6.68;;
68214;SDS011;55036;52.138;5.236;2023-07-31T04:48:28;18.13;;;6.57;;
68214;SDS011;55036;52.138;5.236;2023-07-31T04:50:55;22.23;;;6.85;;
68214;SDS011;55036;52.138;5.236;2023-07-31T04:53:21;18.33;;;6.28;;
68214;SDS011;55036;52.138;5.236;2023-07-31T04:55:48;18.55;;;7.22;;
68214;SDS011;55036;52.138;5.236;2023-07-31T04:58:15;12.57;;;5.47;;
68214;SDS011;55036;52.138;5.236;2023-07-31T05:00:41;18.02;;;6.05;;
68214;SDS011;55036;52.138;5.236;2023-07-31T05:03:08;15.70;;;6.03;;
68214;SDS011;55036;52.138;5.236;2023-07-31T05:05:37;17.95;;;5.95;;
68214;SDS011;55036;52.138;5.236;2023-07-31T05:08:03;20.15;;;6.70;;
68214;SDS011;55036;52.138;5.236;2023-07-31T05:10:30;17.67;;;6.38;;
68214;SDS011;55036;52.138;5.236;2023-07-31T05:12:57;14.98;;;5.72;;
68214;SDS011;55036;52.138;5.236;2023-07-31T05:15:24;15.15;;;5.75;;
68214;SDS011;55036;52.138;5.236;2023-07-31T05:17:51;14.40;;;5.93;;
68214;SDS011;55036;52.138;5.236;2023-07-31T05:20:17;16.40;;;5.70;;
68214;SDS011;55036;52.138;5.236;2023-07-31T05:22:44;14.70;;;5.35;;
68214;SDS011;55036;52.138;5.236;2023-07-31T05:25:11;10.23;;;4.13;;
68214;SDS011;55036;52.138;5.236;2023-07-31T05:27:38;12.40;;;4.45;;
68214;SDS011;55036;52.138;5.236;2023-07-31T05:30:06;10.98;;;4.45;;
68214;SDS011;55036;52.138;5.236;2023-07-31T05:32:33;11.40;;;4.50;;
68214;SDS011;55036;52.138;5.236;2023-07-31T05:35:00;10.27;;;4.32;;
68214;SDS011;55036;52.138;5.236;2023-07-31T05:37:27;8.55;;;3.67;;
68214;SDS011;55036;52.138;5.236;2023-07-31T05:39:54;10.07;;;3.45;;
68214;SDS011;55036;52.138;5.236;2023-07-31T05:42:20;7.85;;;3.53;;
68214;SDS011;55036;52.138;5.236;2023-07-31T05:44:47;8.32;;;3.75;;
68214;SDS011;55036;52.138;5.236;2023-07-31T05:47:14;8.45;;;3.53;;
68214;SDS011;55036;52.138;5.236;2023-07-31T05:49:41;8.88;;;3.95;;
68214;SDS011;55036;52.138;5.236;2023-07-31T05:52:08;9.77;;;3.53;;
68214;SDS011;55036;52.138;5.236;2023-07-31T05:54:34;7.25;;;3.85;;
68214;SDS011;55036;52.138;5.236;2023-07-31T05:57:01;8.13;;;4.10;;
68214;SDS011;55036;52.138;5.236;2023-07-31T05:59:28;8.73;;;3.97;;
68214;SDS011;55036;52.138;5.236;2023-07-31T06:01:55;8.52;;;3.88;;
68214;SDS011;55036;52.138;5.236;2023-07-31T06:04:22;8.02;;;3.53;;
68214;SDS011;55036;52.138;5.236;2023-07-31T06:06:51;8.38;;;3.78;;
68214;SDS011;55036;52.138;5.236;2023-07-31T06:09:18;8.38;;;3.70;;
68214;SDS011;55036;52.138;5.236;2023-07-31T06:11:46;10.73;;;3.95;;
68214;SDS011;55036;52.138;5.236;2023-07-31T06:14:13;9.30;;;4.53;;
68214;SDS011;55036;52.138;5.236;2023-07-31T06:16:40;9.68;;;4.65;;
68214;SDS011;55036;52.138;5.236;2023-07-31T06:19:07;8.80;;;4.28;;
68214;SDS011;55036;52.138;5.236;2023-07-31T06:21:34;13.13;;;4.35;;
68214;SDS011;55036;52.138;5.236;2023-07-31T06:24:04;10.88;;;4.05;;
68214;SDS011;55036;52.138;5.236;2023-07-31T06:26:31;7.30;;;3.70;;
68214;SDS011;55036;52.138;5.236;2023-07-31T06:28:58;7.60;;;3.67;;
68214;SDS011;55036;52.138;5.236;2023-07-31T06:31:25;5.93;;;3.58;;
68214;SDS011;55036;52.138;5.236;2023-07-31T06:33:52;7.80;;;3.97;;
68214;SDS011;55036;52.138;5.236;2023-07-31T06:36:19;9.05;;;3.53;;
68214;SDS011;55036;52.138;5.236;2023-07-31T06:38:45;8.18;;;3.58;;
68214;SDS011;55036;52.138;5.236;2023-07-31T06:41:12;7.32;;;3.53;;
68214;SDS011;55036;52.138;5.236;2023-07-31T06:43:39;8.25;;;3.50;;
68214;SDS011;55036;52.138;5.236;2023-07-31T06:46:06;9.38;;;3.50;;
68214;SDS011;55036;52.138;5.236;2023-07-31T06:48:33;7.68;;;3.58;;
68214;SDS011;55036;52.138;5.236;2023-07-31T06:51:00;8.45;;;3.85;;
68214;SDS011;55036;52.138;5.236;2023-07-31T06:53:27;7.18;;;3.45;;
68214;SDS011;55036;52.138;5.236;2023-07-31T06:55:54;7.60;;;3.05;;
68214;SDS011;55036;52.138;5.236;2023-07-31T06:58:21;9.60;;;3.67;;
68214;SDS011;55036;52.138;5.236;2023-07-31T07:00:48;7.65;;;3.22;;
68214;SDS011;55036;52.138;5.236;2023-07-31T07:03:18;5.18;;;3.03;;
68214;SDS011;55036;52.138;5.236;2023-07-31T07:05:45;5.70;;;3.05;;
68214;SDS011;55036;52.138;5.236;2023-07-31T07:08:12;8.85;;;3.10;;
68214;SDS011;55036;52.138;5.236;2023-07-31T07:10:39;8.50;;;3.42;;
68214;SDS011;55036;52.138;5.236;2023-07-31T07:13:05;7.35;;;2.70;;
68214;SDS011;55036;52.138;5.236;2023-07-31T07:15:32;8.02;;;3.28;;
68214;SDS011;55036;52.138;5.236;2023-07-31T07:17:59;5.13;;;3.20;;
68214;SDS011;55036;52.138;5.236;2023-07-31T07:20:26;5.72;;;2.60;;
68214;SDS011;55036;52.138;5.236;2023-07-31T07:22:53;5.05;;;2.92;;
68214;SDS011;55036;52.138;5.236;2023-07-31T07:25:21;5.35;;;3.05;;
68214;SDS011;55036;52.138;5.236;2023-07-31T07:27:47;6.68;;;2.78;;
68214;SDS011;55036;52.138;5.236;2023-07-31T07:30:14;5.60;;;2.58;;
68214;SDS011;55036;52.138;5.236;2023-07-31T07:32:41;5.65;;;2.63;;
68214;SDS011;55036;52.138;5.236;2023-07-31T07:35:08;4.00;;;2.30;;
68214;SDS011;55036;52.138;5.236;2023-07-31T07:37:35;4.75;;;2.30;;
68214;SDS011;55036;52.138;5.236;2023-07-31T07:40:01;5.65;;;2.33;;
68214;SDS011;55036;52.138;5.236;2023-07-31T07:42:29;4.07;;;1.95;;
68214;SDS011;55036;52.138;5.236;2023-07-31T07:44:55;5.07;;;2.03;;
68214;SDS011;55036;52.138;5.236;2023-07-31T07:47:22;4.05;;;1.98;;
68214;SDS011;55036;52.138;5.236;2023-07-31T07:49:49;4.28;;;2.58;;
68214;SDS011;55036;52.138;5.236;2023-07-31T07:52:18;3.38;;;2.30;;
68214;SDS011;55036;52.138;5.236;2023-07-31T07:54:45;3.83;;;2.40;;
68214;SDS011;55036;52.138;5.236;2023-07-31T07:57:12;3.33;;;1.60;;
68214;SDS011;55036;52.138;5.236;2023-07-31T07:59:38;6.75;;;2.03;;
68214;SDS011;55036;52.138;5.236;2023-07-31T08:02:06;4.65;;;1.90;;
68214;SDS011;55036;52.138;5.236;2023-07-31T08:04:33;4.63;;;1.70;;
68214;SDS011;55036;52.138;5.236;2023-07-31T08:07:00;4.15;;;1.80;;
68214;SDS011;55036;52.138;5.236;2023-07-31T08:09:27;2.85;;;1.60;;
68214;SDS011;55036;52.138;5.236;2023-07-31T08:11:54;3.38;;;1.50;;
68214;SDS011;55036;52.138;5.236;2023-07-31T08:14:23;2.95;;;1.60;;
68214;SDS011;55036;52.138;5.236;2023-07-31T08:16:50;2.85;;;1.38;;
68214;SDS011;55036;52.138;5.236;2023-07-31T08:19:16;2.72;;;1.60;;
68214;SDS011;55036;52.138;5.236;2023-07-31T08:21:43;3.47;;;1.55;;
68214;SDS011;55036;52.138;5.236;2023-07-31T08:24:10;1.65;;;1.27;;
68214;SDS011;55036;52.138;5.236;2023-07-31T08:26:37;4.10;;;1.63;;
68214;SDS011;55036;52.138;5.236;2023-07-31T08:29:04;2.20;;;1.60;;
68214;SDS011;55036;52.138;5.236;2023-07-31T08:31:30;2.55;;;1.30;;
68214;SDS011;55036;52.138;5.236;2023-07-31T08:33:57;2.88;;;1.58;;
68214;SDS011;55036;52.138;5.236;2023-07-31T08:36:24;2.17;;;1.20;;
68214;SDS011;55036;52.138;5.236;2023-07-31T08:38:54;3.45;;;1.40;;
68214;SDS011;55036;52.138;5.236;2023-07-31T08:41:21;3.58;;;1.50;;
68214;SDS011;55036;52.138;5.236;2023-07-31T08:43:49;2.65;;;1.25;;
68214;SDS011;55036;52.138;5.236;2023-07-31T08:46:16;2.78;;;1.20;;
68214;SDS011;55036;52.138;5.236;2023-07-31T08:48:44;3.25;;;1.40;;
68214;SDS011;55036;52.138;5.236;2023-07-31T08:51:14;3.38;;;1.60;;
68214;SDS011;55036;52.138;5.236;2023-07-31T08:53:41;3.13;;;1.67;;
68214;SDS011;55036;52.138;5.236;2023-07-31T08:56:07;2.42;;;1.40;;
68214;SDS011;55036;52.138;5.236;2023-07-31T08:58:35;2.40;;;1.23;;
68214;SDS011;55036;52.138;5.236;2023-07-31T09:01:04;5.78;;;1.40;;
68214;SDS011;55036;52.138;5.236;2023-07-31T09:03:33;1.90;;;1.40;;
68214;SDS011;55036;52.138;5.236;2023-07-31T09:06:02;2.58;;;1.38;;
68214;SDS011;55036;52.138;5.236;2023-07-31T09:08:32;3.25;;;1.52;;
68214;SDS011;55036;52.138;5.236;2023-07-31T09:10:59;2.10;;;1.20;;
68214;SDS011;55036;52.138;5.236;2023-07-31T09:13:29;5.50;;;1.40;;
68214;SDS011;55036;52.138;5.236;2023-07-31T09:15:57;2.05;;;1.73;;
68214;SDS011;55036;52.138;5.236;2023-07-31T09:18:24;1.88;;;1.27;;
68214;SDS011;55036;52.138;5.236;2023-07-31T09:21:01;1.75;;;1.65;;
68214;SDS011;55036;52.138;5.236;2023-07-31T09:23:41;1.85;;;1.50;;
68214;SDS011;55036;52.138;5.236;2023-07-31T09:26:10;2.63;;;1.77;;
68214;SDS011;55036;52.138;5.236;2023-07-31T09:28:37;3.60;;;1.60;;
68214;SDS011;55036;52.138;5.236;2023-07-31T09:31:04;4.43;;;1.55;;
68214;SDS011;55036;52.138;5.236;2023-07-31T09:33:30;2.20;;;1.50;;
68214;SDS011;55036;52.138;5.236;2023-07-31T09:35:58;1.70;;;1.50;;
68214;SDS011;55036;52.138;5.236;2023-07-31T09:38:26;3.33;;;1.73;;
68214;SDS011;55036;52.138;5.236;2023-07-31T09:40:53;2.15;;;1.75;;
68214;SDS011;55036;52.138;5.236;2023-07-31T09:43:21;1.67;;;1.35;;
68214;SDS011;55036;52.138;5.236;2023-07-31T09:45:48;3.05;;;1.88;;
68214;SDS011;55036;52.138;5.236;2023-07-31T09:48:20;3.63;;;2.00;;
68214;SDS011;55036;52.138;5.236;2023-07-31T09:50:47;2.72;;;1.50;;
68214;SDS011;55036;52.138;5.236;2023-07-31T09:53:15;2.30;;;1.50;;
68214;SDS011;55036;52.138;5.236;2023-07-31T09:55:45;1.95;;;1.63;;
68214;SDS011;55036;52.138;5.236;2023-07-31T09:58:12;1.40;;;1.30;;
68214;SDS011;55036;52.138;5.236;2023-07-31T10:00:39;1.63;;;1.45;;
68214;SDS011;55036;52.138;5.236;2023-07-31T10:03:07;2.20;;;1.77;;
68214;SDS011;55036;52.138;5.236;2023-07-31T10:05:36;2.33;;;1.40;;
68214;SDS011;55036;52.138;5.236;2023-07-31T10:08:06;2.75;;;1.70;;
68214;SDS011;55036;52.138;5.236;2023-07-31T10:10:36;4.22;;;1.90;;
68214;SDS011;55036;52.138;5.236;2023-07-31T10:13:03;2.08;;;1.75;;
68214;SDS011;55036;52.138;5.236;2023-07-31T10:15:32;4.75;;;1.90;;
68214;SDS011;55036;52.138;5.236;2023-07-31T10:17:59;4.75;;;2.15;;
68214;SDS011;55036;52.138;5.236;2023-07-31T10:20:27;3.75;;;2.15;;
68214;SDS011;55036;52.138;5.236;2023-07-31T10:22:55;3.38;;;2.30;;
68214;SDS011;55036;52.138;5.236;2023-07-31T10:25:23;2.83;;;2.58;;
68214;SDS011;55036;52.138;5.236;2023-07-31T10:27:50;3.10;;;2.45;;
68214;SDS011;55036;52.138;5.236;2023-07-31T10:30:19;4.13;;;2.90;;
68214;SDS011;55036;52.138;5.236;2023-07-31T10:32:48;3.95;;;2.92;;
68214;SDS011;55036;52.138;5.236;2023-07-31T10:35:17;4.78;;;2.97;;
68214;SDS011;55036;52.138;5.236;2023-07-31T10:37:44;5.93;;;3.85;;
68214;SDS011;55036;52.138;5.236;2023-07-31T10:42:45;5.47;;;4.00;;
68214;SDS011;55036;52.138;5.236;2023-07-31T10:45:33;6.38;;;3.72;;
68214;SDS011;55036;52.138;5.236;2023-07-31T10:48:04;4.00;;;3.47;;
68214;SDS011;55036;52.138;5.236;2023-07-31T10:50:36;7.53;;;4.03;;
68214;SDS011;55036;52.138;5.236;2023-07-31T10:53:04;5.53;;;3.80;;
68214;SDS011;55036;52.138;5.236;2023-07-31T10:55:38;6.55;;;3.92;;
68214;SDS011;55036;52.138;5.236;2023-07-31T10:58:11;4.75;;;3.63;;
68214;SDS011;55036;52.138;5.236;2023-07-31T11:00:39;5.30;;;3.85;;
68214;SDS011;55036;52.138;5.236;2023-07-31T11:03:08;5.93;;;3.92;;
68214;SDS011;55036;52.138;5.236;2023-07-31T11:10:47;5.50;;;3.13;;
68214;SDS011;55036;52.138;5.236;2023-07-31T11:13:15;4.55;;;3.28;;
68214;SDS011;55036;52.138;5.236;2023-07-31T11:15:42;3.47;;;3.10;;
68214;SDS011;55036;52.138;5.236;2023-07-31T11:18:09;4.10;;;3.13;;
68214;SDS011;55036;52.138;5.236;2023-07-31T11:20:37;6.03;;;2.88;;
68214;SDS011;55036;52.138;5.236;2023-07-31T11:23:08;4.63;;;2.47;;
68214;SDS011;55036;52.138;5.236;2023-07-31T11:28:05;5.10;;;2.83;;
68214;SDS011;55036;52.138;5.236;2023-07-31T11:30:34;4.00;;;2.75;;
68214;SDS011;55036;52.138;5.236;2023-07-31T11:33:02;3.55;;;2.40;;
68214;SDS011;55036;52.138;5.236;2023-07-31T11:35:33;4.68;;;2.22;;
68214;SDS011;55036;52.138;5.236;2023-07-31T11:40:28;3.50;;;2.42;;
68214;SDS011;55036;52.138;5.236;2023-07-31T11:42:58;3.78;;;2.47;;
68214;SDS011;55036;52.138;5.236;2023-07-31T11:45:30;6.85;;;2.70;;
68214;SDS011;55036;52.138;5.236;2023-07-31T11:47:58;4.05;;;2.60;;
68214;SDS011;55036;52.138;5.236;2023-07-31T11:50:26;5.03;;;2.88;;
68214;SDS011;55036;52.138;5.236;2023-07-31T11:52:55;8.38;;;3.40;;
68214;SDS011;55036;52.138;5.236;2023-07-31T11:55:25;5.93;;;3.50;;
68214;SDS011;55036;52.138;5.236;2023-07-31T11:57:53;8.38;;;3.70;;
68214;SDS011;55036;52.138;5.236;2023-07-31T12:00:21;6.28;;;4.30;;
68214;SDS011;55036;52.138;5.236;2023-07-31T12:02:49;7.50;;;4.40;;
68214;SDS011;55036;52.138;5.236;2023-07-31T12:05:17;5.63;;;3.95;;
68214;SDS011;55036;52.138;5.236;2023-07-31T12:07:45;6.03;;;4.30;;
68214;SDS011;55036;52.138;5.236;2023-07-31T12:10:23;7.22;;;4.55;;
68214;SDS011;55036;52.138;5.236;2023-07-31T12:12:56;5.97;;;4.05;;
68214;SDS011;55036;52.138;5.236;2023-07-31T12:15:40;6.43;;;4.20;;
68214;SDS011;55036;52.138;5.236;2023-07-31T12:18:09;6.32;;;4.00;;
68214;SDS011;55036;52.138;5.236;2023-07-31T12:20:43;5.55;;;4.00;;
68214;SDS011;55036;52.138;5.236;2023-07-31T12:23:16;6.93;;;3.90;;
68214;SDS011;55036;52.138;5.236;2023-07-31T12:25:44;7.55;;;4.05;;
68214;SDS011;55036;52.138;5.236;2023-07-31T12:28:11;7.28;;;3.75;;
68214;SDS011;55036;52.138;5.236;2023-07-31T12:30:39;5.60;;;3.42;;
68214;SDS011;55036;52.138;5.236;2023-07-31T12:33:10;6.35;;;3.28;;
68214;SDS011;55036;52.138;5.236;2023-07-31T12:35:46;5.45;;;3.67;;
68214;SDS011;55036;52.138;5.236;2023-07-31T12:38:13;5.90;;;3.40;;
68214;SDS011;55036;52.138;5.236;2023-07-31T12:40:40;5.60;;;3.33;;
68214;SDS011;55036;52.138;5.236;2023-07-31T12:43:08;5.38;;;3.70;;
68214;SDS011;55036;52.138;5.236;2023-07-31T12:45:35;6.05;;;4.15;;
68214;SDS011;55036;52.138;5.236;2023-07-31T12:48:02;6.10;;;4.32;;
68214;SDS011;55036;52.138;5.236;2023-07-31T12:50:29;5.15;;;4.00;;
68214;SDS011;55036;52.138;5.236;2023-07-31T12:52:56;4.82;;;3.60;;
68214;SDS011;55036;52.138;5.236;2023-07-31T12:55:23;4.65;;;3.53;;
68214;SDS011;55036;52.138;5.236;2023-07-31T12:57:50;4.95;;;3.95;;
68214;SDS011;55036;52.138;5.236;2023-07-31T13:00:18;5.30;;;3.55;;
68214;SDS011;55036;52.138;5.236;2023-07-31T13:02:45;6.57;;;3.88;;
68214;SDS011;55036;52.138;5.236;2023-07-31T13:05:11;6.72;;;3.75;;
68214;SDS011;55036;52.138;5.236;2023-07-31T13:07:39;9.07;;;4.20;;
68214;SDS011;55036;52.138;5.236;2023-07-31T13:10:06;4.72;;;3.83;;
68214;SDS011;55036;52.138;5.236;2023-07-31T13:12:34;4.70;;;3.80;;
68214;SDS011;55036;52.138;5.236;2023-07-31T13:15:00;4.07;;;3.38;;
68214;SDS011;55036;52.138;5.236;2023-07-31T13:17:27;4.20;;;2.97;;
68214;SDS011;55036;52.138;5.236;2023-07-31T13:19:54;5.35;;;3.08;;
68214;SDS011;55036;52.138;5.236;2023-07-31T13:22:21;4.45;;;3.35;;
68214;SDS011;55036;52.138;5.236;2023-07-31T13:24:47;4.35;;;3.50;;
68214;SDS011;55036;52.138;5.236;2023-07-31T13:27:14;5.78;;;3.25;;
68214;SDS011;55036;52.138;5.236;2023-07-31T13:29:45;4.47;;;3.17;;
68214;SDS011;55036;52.138;5.236;2023-07-31T13:32:12;3.85;;;2.67;;
68214;SDS011;55036;52.138;5.236;2023-07-31T13:34:39;4.50;;;2.97;;
68214;SDS011;55036;52.138;5.236;2023-07-31T13:37:06;3.80;;;2.78;;
68214;SDS011;55036;52.138;5.236;2023-07-31T13:39:32;5.40;;;2.67;;
68214;SDS011;55036;52.138;5.236;2023-07-31T13:42:01;3.78;;;2.60;;
68214;SDS011;55036;52.138;5.236;2023-07-31T13:44:29;4.00;;;2.10;;
68214;SDS011;55036;52.138;5.236;2023-07-31T13:46:56;2.92;;;2.00;;
68214;SDS011;55036;52.138;5.236;2023-07-31T13:49:23;2.33;;;1.65;;
68214;SDS011;55036;52.138;5.236;2023-07-31T13:51:49;2.08;;;1.20;;
68214;SDS011;55036;52.138;5.236;2023-07-31T13:54:16;2.75;;;1.17;;
68214;SDS011;55036;52.138;5.236;2023-07-31T13:56:43;1.35;;;1.13;;
68214;SDS011;55036;52.138;5.236;2023-07-31T13:59:11;2.38;;;1.50;;
68214;SDS011;55036;52.138;5.236;2023-07-31T14:01:38;2.40;;;1.40;;
68214;SDS011;55036;52.138;5.236;2023-07-31T14:04:04;1.10;;;0.90;;
68214;SDS011;55036;52.138;5.236;2023-07-31T14:06:31;1.10;;;1.00;;
68214;SDS011;55036;52.138;5.236;2023-07-31T14:08:58;0.98;;;0.88;;
68214;SDS011;55036;52.138;5.236;2023-07-31T14:11:25;2.05;;;1.10;;
68214;SDS011;55036;52.138;5.236;2023-07-31T14:13:52;2.67;;;1.42;;
68214;SDS011;55036;52.138;5.236;2023-07-31T14:16:19;2.03;;;1.58;;
68214;SDS011;55036;52.138;5.236;2023-07-31T14:18:46;1.98;;;1.40;;
68214;SDS011;55036;52.138;5.236;2023-07-31T14:21:13;2.30;;;1.60;;
68214;SDS011;55036;52.138;5.236;2023-07-31T14:23:40;2.63;;;1.38;;
68214;SDS011;55036;52.138;5.236;2023-07-31T14:26:07;3.10;;;1.63;;
68214;SDS011;55036;52.138;5.236;2023-07-31T14:28:34;3.30;;;2.13;;
68214;SDS011;55036;52.138;5.236;2023-07-31T14:31:01;3.22;;;1.80;;
68214;SDS011;55036;52.138;5.236;2023-07-31T14:33:28;2.40;;;1.58;;
68214;SDS011;55036;52.138;5.236;2023-07-31T14:35:55;2.83;;;1.75;;
68214;SDS011;55036;52.138;5.236;2023-07-31T14:38:21;2.58;;;1.83;;
68214;SDS011;55036;52.138;5.236;2023-07-31T14:40:48;2.35;;;1.83;;
68214;SDS011;55036;52.138;5.236;2023-07-31T14:43:15;4.85;;;2.45;;
68214;SDS011;55036;52.138;5.236;2023-07-31T14:45:42;3.83;;;3.00;;
68214;SDS011;55036;52.138;5.236;2023-07-31T14:48:09;3.83;;;3.10;;
68214;SDS011;55036;52.138;5.236;2023-07-31T14:50:36;5.82;;;3.42;;
68214;SDS011;55036;52.138;5.236;2023-07-31T14:53:03;4.70;;;3.13;;
68214;SDS011;55036;52.138;5.236;2023-07-31T14:55:29;4.05;;;2.55;;
68214;SDS011;55036;52.138;5.236;2023-07-31T14:57:56;4.45;;;2.25;;
68214;SDS011;55036;52.138;5.236;2023-07-31T15:00:23;3.60;;;2.28;;
68214;SDS011;55036;52.138;5.236;2023-07-31T15:02:50;3.05;;;2.05;;
68214;SDS011;55036;52.138;5.236;2023-07-31T15:05:17;6.63;;;2.40;;
68214;SDS011;55036;52.138;5.236;2023-07-31T15:07:44;3.75;;;2.28;;
68214;SDS011;55036;52.138;5.236;2023-07-31T15:10:10;3.58;;;2.47;;
68214;SDS011;55036;52.138;5.236;2023-07-31T15:12:39;3.28;;;2.38;;
68214;SDS011;55036;52.138;5.236;2023-07-31T15:15:06;4.25;;;3.03;;
68214;SDS011;55036;52.138;5.236;2023-07-31T15:17:33;4.55;;;3.05;;
68214;SDS011;55036;52.138;5.236;2023-07-31T15:20:00;4.30;;;3.40;;
68214;SDS011;55036;52.138;5.236;2023-07-31T15:22:29;5.05;;;3.50;;
68214;SDS011;55036;52.138;5.236;2023-07-31T15:24:56;3.63;;;2.80;;
68214;SDS011;55036;52.138;5.236;2023-07-31T15:27:23;4.20;;;3.55;;
68214;SDS011;55036;52.138;5.236;2023-07-31T15:29:50;5.60;;;3.30;;
68214;SDS011;55036;52.138;5.236;2023-07-31T15:32:18;4.05;;;2.90;;
68214;SDS011;55036;52.138;5.236;2023-07-31T15:34:45;4.50;;;3.63;;
68214;SDS011;55036;52.138;5.236;2023-07-31T15:37:12;6.15;;;3.63;;